Time;durP1;ratioP1;P1;durP2;ratioP2;P2;SDS_P1;SDS_P2;PMS_P1;PMS_P2;Temp;Humidity;BMP_temperature;BMP_pressure;BME280_temperature;BME280_humidity;BME280_pressure;Samples;Min_cycle;Max_cycle;Signal;HPM_P1;HPM_P2
2022/04/16 00:03:56;;;;;;;4.40;1.43;;;4.60;99.90;;;;;;10314730;28;20439;-79
2022/04/16 00:09:17;;;;;;;5.93;1.97;;;4.60;99.90;;;;;;10314463;28;20269;-79
2022/04/16 00:14:39;;;;;;;3.13;1.60;;;4.60;99.90;;;;;;10369085;28;20222;-79
2022/04/16 00:20:02;;;;;;;2.73;1.53;;;4.60;99.90;;;;;;10353710;28;20594;-79
2022/04/16 00:25:23;;;;;;;4.57;1.37;;;4.60;99.90;;;;;;10366512;28;20222;-79
2022/04/16 00:30:44;;;;;;;3.73;1.90;;;4.60;99.90;;;;;;10313135;28;20276;-79
2022/04/16 00:36:06;;;;;;;4.47;2.00;;;4.60;99.90;;;;;;10313749;28;20240;-79
2022/04/16 00:41:27;;;;;;;3.07;1.53;;;4.50;99.90;;;;;;10313255;28;20421;-79
2022/04/16 00:46:48;;;;;;;6.00;1.90;;;4.40;99.90;;;;;;10335304;28;20230;-79
2022/04/16 00:52:10;;;;;;;2.70;1.57;;;4.30;99.90;;;;;;10320403;28;20196;-78
2022/04/16 00:57:32;;;;;;;2.17;1.67;;;4.40;99.90;;;;;;10319805;28;20201;-79
2022/04/16 01:02:56;;;;;;;9.20;1.80;;;4.40;99.90;;;;;;10333851;28;20221;-79
2022/04/16 01:08:19;;;;;;;5.27;1.87;;;4.30;99.90;;;;;;10319315;28;20245;-79
2022/04/16 01:13:45;;;;;;;4.23;2.10;;;4.40;99.90;;;;;;10367200;28;20202;-79
2022/04/16 01:19:12;;;;;;;2.60;1.80;;;4.30;99.90;;;;;;10339008;28;20206;-80
2022/04/16 01:24:34;;;;;;;5.53;1.90;;;4.40;99.90;;;;;;10345431;28;20198;-79
2022/04/16 01:29:57;;;;;;;3.43;2.10;;;4.40;99.90;;;;;;10337964;28;20276;-80
2022/04/16 01:35:18;;;;;;;3.90;2.00;;;4.40;99.90;;;;;;10318094;28;20249;-80
2022/04/16 01:40:39;;;;;;;4.77;1.80;;;4.30;99.90;;;;;;10332382;28;20376;-80
2022/04/16 01:46:02;;;;;;;4.97;2.37;;;4.30;99.90;;;;;;10318242;28;20221;-79
2022/04/16 01:51:24;;;;;;;5.07;1.90;;;4.30;99.90;;;;;;10318721;28;20190;-79
2022/04/16 01:56:45;;;;;;;5.00;2.20;;;4.30;99.90;;;;;;10316413;28;20202;-80
2022/04/16 02:02:07;;;;;;;4.10;2.03;;;4.30;99.90;;;;;;10317287;28;20194;-79
2022/04/16 02:07:29;;;;;;;7.07;1.77;;;4.20;99.90;;;;;;10303977;28;20414;-79
2022/04/16 02:12:50;;;;;;;8.50;2.13;;;4.10;99.90;;;;;;10342904;28;20251;-78
2022/04/16 02:18:11;;;;;;;6.77;1.83;;;4.10;99.90;;;;;;10336687;28;20203;-79
2022/04/16 02:23:33;;;;;;;2.27;1.50;;;;;;;;;;10330405;28;20205;-80
2022/04/16 02:28:54;;;;;;;7.43;1.73;;;3.90;99.90;;;;;;10316090;28;20232;-80
2022/04/16 02:34:18;;;;;;;6.30;2.33;;;3.80;99.90;;;;;;10317199;28;20220;-78
2022/04/16 02:39:39;;;;;;;4.13;2.07;;;3.80;99.90;;;;;;10332048;28;20205;-79
2022/04/16 02:50:41;;;;;;;6.03;2.10;;;3.70;99.90;;;;;;10316823;28;20194;-79
2022/04/16 02:56:03;;;;;;;8.37;2.20;;;3.60;99.90;;;;;;10301474;28;20492;-79
2022/04/16 03:01:24;;;;;;;5.80;2.67;;;3.50;99.90;;;;;;10331425;28;20248;-78
2022/04/16 03:06:45;;;;;;;5.50;2.07;;;3.40;99.90;;;;;;10315923;28;20225;-79
2022/04/16 03:12:07;;;;;;;6.57;1.67;;;3.40;99.90;;;;;;10349873;28;20308;-79
2022/04/16 03:17:31;;;;;;;2.70;2.00;;;3.30;99.90;;;;;;10360689;28;20201;-79
2022/04/16 03:22:53;;;;;;;2.20;1.77;;;3.20;99.90;;;;;;10352910;28;20208;-79
2022/04/16 03:28:15;;;;;;;6.00;2.30;;;3.20;99.90;;;;;;10330748;28;20229;-79
2022/04/16 03:33:36;;;;;;;5.27;2.00;;;3.20;99.90;;;;;;10300732;28;20504;-79
2022/04/16 03:38:57;;;;;;;7.80;2.03;;;3.20;99.90;;;;;;10315245;28;20247;-79
2022/04/16 03:44:19;;;;;;;5.67;2.10;;;3.10;99.90;;;;;;10313731;28;20209;-79
2022/04/16 03:49:40;;;;;;;3.10;2.10;;;3.10;99.90;;;;;;10314228;28;20218;-79
2022/04/16 04:00:47;;;;;;;7.20;2.90;;;3.20;99.90;;;;;;10311269;28;20209;-80
2022/04/16 04:06:08;;;;;;;9.63;4.53;;;3.20;99.90;;;;;;10281632;28;20440;-78
2022/04/16 04:11:30;;;;;;;12.47;5.00;;;3.20;99.90;;;;;;10324209;28;20205;-79
2022/04/16 04:16:51;;;;;;;12.50;6.37;;;3.30;99.90;;;;;;10275614;28;20284;-79
2022/04/16 04:22:15;;;;;;;11.07;5.37;;;3.30;99.90;;;;;;10328781;28;20220;-78
2022/04/16 04:27:36;;;;;;;6.63;2.70;;;3.30;99.90;;;;;;10315938;28;20446;-78
2022/04/16 04:32:58;;;;;;;5.53;3.90;;;3.30;99.90;;;;;;10305120;28;20256;-79
2022/04/16 04:38:20;;;;;;;9.77;4.70;;;3.30;99.90;;;;;;10296337;28;20460;-80
2022/04/16 04:43:41;;;;;;;8.10;5.33;;;3.30;99.90;;;;;;10294282;28;20201;-79
2022/04/16 04:49:02;;;;;;;9.57;4.40;;;3.40;99.90;;;;;;10281242;29;20231;-79
2022/04/16 04:54:23;;;;;;;6.27;3.03;;;3.40;99.90;;;;;;10293934;28;20195;-79
2022/04/16 04:59:44;;;;;;;6.70;2.40;;;3.40;99.90;;;;;;10320915;28;20212;-78
2022/04/16 05:05:07;;;;;;;5.13;2.20;;;3.40;99.90;;;;;;10336011;28;20205;-78
2022/04/16 05:10:28;;;;;;;5.53;2.90;;;3.50;99.90;;;;;;10325840;28;20232;-78
2022/04/16 05:15:49;;;;;;;5.83;2.30;;;3.60;99.90;;;;;;10346316;28;20193;-78
2022/04/16 05:21:11;;;;;;;5.80;2.13;;;3.60;99.90;;;;;;10335733;28;20206;-79
2022/04/16 05:26:32;;;;;;;10.83;5.70;;;3.60;99.90;;;;;;10318600;28;20270;-80
2022/04/16 05:31:53;;;;;;;5.67;4.03;;;3.60;99.90;;;;;;10321741;28;20209;-78
2022/04/16 05:37:15;;;;;;;6.93;3.13;;;3.70;99.90;;;;;;10318104;28;20240;-78
2022/04/16 05:42:41;;;;;;;5.90;2.83;;;3.70;99.90;;;;;;10319493;28;20204;-78
2022/04/16 05:48:02;;;;;;;8.60;2.80;;;3.80;99.90;;;;;;10318048;28;20225;-79
2022/04/16 05:53:24;;;;;;;7.40;4.63;;;4.00;99.90;;;;;;10334121;28;20204;-78
2022/04/16 05:58:45;;;;;;;4.47;2.20;;;4.10;99.90;;;;;;10291524;28;20197;-78
2022/04/16 06:04:07;;;;;;;5.93;3.10;;;4.20;99.90;;;;;;10293892;28;20226;-79
2022/04/16 06:09:29;;;;;;;6.33;2.50;;;4.40;99.90;;;;;;10277010;29;20245;-78
2022/04/16 06:14:51;;;;;;;5.30;2.13;;;4.70;99.90;;;;;;10293098;28;20199;-79
2022/04/16 06:20:13;;;;;;;6.03;2.07;;;5.80;99.90;;;;;;10318191;28;20200;-79
2022/04/16 06:25:35;;;;;;;5.40;2.53;;;7.40;99.90;;;;;;10330111;28;20209;-79
2022/04/16 06:30:57;;;;;;;7.87;3.57;;;8.80;99.90;;;;;;10332368;28;20199;-80
2022/04/16 06:36:18;;;;;;;5.27;2.80;;;9.80;99.90;;;;;;10332495;28;20235;-80
2022/04/16 06:41:39;;;;;;;3.57;2.20;;;10.40;99.10;;;;;;10331279;28;20200;-79
2022/04/16 06:47:00;;;;;;;3.63;1.90;;;10.90;96.90;;;;;;10331857;28;20229;-79
2022/04/16 06:52:22;;;;;;;5.70;3.83;;;11.50;94.40;;;;;;10331559;28;20546;-81
2022/04/16 06:57:43;;;;;;;3.57;2.30;;;11.70;87.40;;;;;;10331241;28;20200;-79
2022/04/16 07:03:07;;;;;;;3.67;1.80;;;12.00;76.00;;;;;;10316265;28;20196;-79
2022/04/16 07:08:28;;;;;;;6.07;3.13;;;12.20;71.00;;;;;;10330947;28;20528;-80
2022/04/16 07:13:50;;;;;;;3.35;1.63;;;12.70;74.70;;;;;;10361387;28;20193;-81
2022/04/16 07:19:11;;;;;;;3.13;1.70;;;13.10;55.10;;;;;;10336287;28;20209;-80
2022/04/16 07:24:37;;;;;;;4.05;1.92;;;13.20;47.00;;;;;;10351186;28;20190;-80
2022/04/16 07:29:59;;;;;;;2.63;1.90;;;13.20;49.60;;;;;;10330647;28;20232;-80
2022/04/16 07:35:21;;;;;;;5.00;3.00;;;13.20;47.40;;;;;;10300307;28;20268;-80
2022/04/16 07:40:42;;;;;;;3.70;1.63;;;13.90;43.70;;;;;;10315318;28;20401;-81
2022/04/16 07:46:03;;;;;;;4.28;1.90;;;14.30;42.60;;;;;;10316312;28;20227;-79
2022/04/16 07:51:26;;;;;;;7.55;2.80;;;14.80;38.50;;;;;;10314643;28;20270;-79
2022/04/16 07:56:47;;;;;;;4.03;2.40;;;14.50;37.10;;;;;;10321682;28;20193;-79
2022/04/16 08:02:09;;;;;;;7.88;3.88;;;13.50;46.20;;;;;;10322097;28;20368;-81
2022/04/16 08:07:32;;;;;;;3.30;1.73;;;13.70;46.30;;;;;;10335458;28;20257;-81
2022/04/16 08:12:53;;;;;;;10.10;3.45;;;13.90;43.70;;;;;;10363083;28;20197;-80
2022/04/16 08:18:15;;;;;;;6.38;2.75;;;13.70;50.50;;;;;;10327821;28;20561;-80
2022/04/16 08:23:43;;;;;;;3.83;1.98;;;14.00;46.30;;;;;;10362666;28;20211;-79
2022/04/16 08:29:05;;;;;;;7.30;2.70;;;13.60;45.20;;;;;;10294346;28;20542;-79
2022/04/16 08:34:26;;;;;;;7.57;2.30;;;13.30;43.20;;;;;;10294512;28;20235;-80
2022/04/16 08:39:48;;;;;;;6.50;3.03;;;12.30;48.90;;;;;;10294125;28;20221;-79
2022/04/16 08:45:10;;;;;;;9.40;3.27;;;12.30;49.60;;;;;;10281610;29;20191;-79
2022/04/16 08:50:32;;;;;;;6.97;3.40;;;11.80;50.40;;;;;;10281271;29;20219;-79
2022/04/16 08:55:53;;;;;;;4.30;2.17;;;12.00;54.10;;;;;;10298956;28;20371;-80
2022/04/16 09:01:16;;;;;;;9.63;4.03;;;13.30;47.40;;;;;;10334174;28;20197;-80
2022/04/16 09:06:37;;;;;;;5.20;3.00;;;13.50;45.80;;;;;;10319850;28;20223;-79
2022/04/16 09:11:59;;;;;;;4.27;2.43;;;13.40;40.40;;;;;;10337115;28;20196;-80
2022/04/16 09:17:20;;;;;;;3.17;1.83;;;12.60;42.20;;;;;;10350492;28;20508;-80
2022/04/16 09:22:49;;;;;;;5.63;2.57;;;12.50;44.60;;;;;;10357045;28;20208;-79
2022/04/16 09:28:10;;;;;;;4.27;1.40;;;11.90;45.80;;;;;;10311146;28;20416;-79
2022/04/16 09:33:40;;;;;;;3.43;1.40;;;11.60;48.70;;;;;;10319373;28;20435;-80
2022/04/16 09:39:06;;;;;;;1.90;1.37;;;12.60;41.50;;;;;;10319665;28;20501;-79
2022/04/16 09:44:29;;;;;;;2.10;1.20;;;13.40;35.60;;;;;;10319430;28;20197;-80
2022/04/16 09:49:54;;;;;;;3.83;1.90;;;12.40;36.40;;;;;;10334180;28;20229;-80
2022/04/16 09:55:15;;;;;;;10.32;4.93;;;13.30;36.10;;;;;;10318838;28;20529;-80
2022/04/16 10:00:38;;;;;;;7.75;3.70;;;14.80;31.80;;;;;;10317216;28;20219;-79
2022/04/16 10:06:21;;;;;;;4.45;1.95;;;15.40;28.10;;;;;;10318405;28;20301;-80
2022/04/16 10:17:39;;;;;;;9.35;2.85;;;14.50;29.10;;;;;;10345741;28;20203;-79
2022/04/16 10:23:05;;;;;;;13.90;4.15;;;14.30;27.80;;;;;;10329328;28;20206;-80
2022/04/16 10:28:52;;;;;;;7.43;3.85;;;13.20;30.40;;;;;;10332419;28;20468;-80
2022/04/16 10:34:16;;;;;;;2.83;1.77;;;13.60;30.00;;;;;;10315729;28;20404;-80
2022/04/16 10:39:43;;;;;;;3.42;1.33;;;15.10;27.40;;;;;;10317753;28;20193;-79
2022/04/16 10:45:11;;;;;;;4.63;1.60;;;16.00;24.20;;;;;;10316809;28;20417;-79
2022/04/16 10:50:32;;;;;;;5.60;3.22;;;15.00;25.40;;;;;;10315803;28;20424;-80
2022/04/16 10:55:54;;;;;;;4.45;2.00;;;14.70;26.10;;;;;;10315406;28;20224;-80
2022/04/16 11:01:26;;;;;;;2.58;1.70;;;14.50;26.10;;;;;;10315613;28;20196;-80
2022/04/16 11:06:51;;;;;;;6.07;2.83;;;15.80;24.80;;;;;;10316136;28;20227;-80
2022/04/16 11:12:14;;;;;;;2.13;1.50;;;16.70;23.10;;;;;;10350774;28;20243;-81
2022/04/16 11:17:35;;;;;;;2.60;1.92;;;16.00;22.10;;;;;;10330536;28;20507;-80
2022/04/16 11:22:58;;;;;;;3.75;2.42;;;15.10;24.10;;;;;;10317021;28;20229;-81
2022/04/16 11:34:17;;;;;;;1.60;1.17;;;14.10;26.30;;;;;;10338367;28;20376;-79
2022/04/16 11:39:38;;;;;;;4.00;2.08;;;15.70;24.40;;;;;;10316358;28;20585;-81
2022/04/16 11:45:00;;;;;;;3.10;1.73;;;15.90;21.40;;;;;;10330235;28;20213;-80
2022/04/16 11:50:21;;;;;;;2.65;1.15;;;14.60;23.10;;;;;;10315101;28;20245;-79
2022/04/16 11:55:52;;;;;;;3.00;1.80;;;14.70;24.40;;;;;;10329608;28;20196;-80
2022/04/16 12:01:13;;;;;;;2.47;1.88;;;15.10;22.70;;;;;;10314952;28;20188;-78
2022/04/16 12:06:35;;;;;;;4.60;2.10;;;15.00;23.80;;;;;;10300420;28;20211;-78
2022/04/16 12:12:00;;;;;;;5.93;2.75;;;14.90;22.50;;;;;;10303646;28;20213;-79
2022/04/16 12:17:24;;;;;;;5.07;1.20;;;14.40;24.00;;;;;;10345348;28;20198;-78
2022/04/16 12:22:50;;;;;;;2.20;1.20;;;14.90;22.40;;;;;;10350742;28;20210;-79
2022/04/16 12:28:12;;;;;;;5.57;2.95;;;15.10;22.10;;;;;;10315343;28;20476;-80
2022/04/16 12:33:34;;;;;;;1.75;1.15;;;15.50;22.30;;;;;;10329365;28;20388;-79
2022/04/16 12:38:55;;;;;;;5.03;2.97;;;15.20;21.50;;;;;;10314426;28;20458;-79
2022/04/16 12:44:16;;;;;;;4.45;1.98;;;14.90;21.90;;;;;;10336545;28;20199;-78
2022/04/16 12:49:38;;;;;;;3.05;1.60;;;13.90;22.80;;;;;;10321455;28;20225;-79
2022/04/16 12:54:59;;;;;;;7.15;2.08;;;13.30;24.80;;;;;;10306175;28;20283;-79
2022/04/16 13:00:21;;;;;;;2.42;1.50;;;14.00;24.70;;;;;;10320624;28;20199;-80
2022/04/16 13:05:42;;;;;;;3.30;1.55;;;14.60;23.40;;;;;;10320051;28;20204;-79
2022/04/16 13:11:06;;;;;;;0.90;0.80;;;14.40;21.90;;;;;;10345818;28;20225;-79
2022/04/16 13:16:30;;;;;;;2.40;1.10;;;13.70;23.50;;;;;;10357762;28;20244;-79
2022/04/16 13:21:52;;;;;;;1.05;0.85;;;13.80;23.50;;;;;;10330788;28;20259;-79
2022/04/16 13:27:13;;;;;;;1.77;1.30;;;14.00;23.30;;;;;;10328745;28;20225;-79
2022/04/16 13:32:35;;;;;;;4.18;2.08;;;13.70;24.10;;;;;;10319761;28;20193;-79
2022/04/16 13:37:56;;;;;;;6.55;3.22;;;13.50;25.40;;;;;;10318266;28;20484;-79
2022/04/16 13:43:17;;;;;;;3.75;1.33;;;13.40;25.10;;;;;;10319244;28;20211;-78
2022/04/16 13:48:38;;;;;;;3.22;1.95;;;13.60;25.20;;;;;;10319099;28;20249;-79
2022/04/16 13:54:00;;;;;;;2.75;1.30;;;13.50;25.10;;;;;;10318475;28;20200;-79
2022/04/16 13:59:21;;;;;;;3.43;2.30;;;13.30;25.40;;;;;;10304008;28;20208;-78
2022/04/16 14:10:36;;;;;;;3.67;2.25;;;13.30;25.50;;;;;;10298257;28;20228;-80
2022/04/16 14:15:59;;;;;;;3.77;2.20;;;12.80;25.40;;;;;;10314445;28;20339;-79
2022/04/16 14:21:20;;;;;;;5.88;3.53;;;12.50;26.30;;;;;;10297237;28;20233;-79
2022/04/16 14:26:42;;;;;;;5.32;2.92;;;12.10;27.70;;;;;;10285389;28;20234;-78
2022/04/16 14:32:04;;;;;;;4.17;2.70;;;12.10;29.30;;;;;;10300459;28;20385;-79
2022/04/16 14:37:26;;;;;;;4.13;2.40;;;12.00;29.30;;;;;;10313314;28;20249;-79
2022/04/16 14:42:48;;;;;;;5.60;2.97;;;12.00;28.10;;;;;;10302755;28;20207;-79
2022/04/16 14:48:10;;;;;;;2.83;1.67;;;11.80;29.90;;;;;;10252210;28;20235;-79
2022/04/16 14:53:31;;;;;;;3.17;1.93;;;11.80;29.60;;;;;;10222175;29;20444;-79
2022/04/16 14:58:52;;;;;;;3.47;1.47;;;11.70;29.90;;;;;;10251982;29;20210;-80
2022/04/16 15:04:14;;;;;;;3.07;2.30;;;11.50;30.10;;;;;;10235400;29;20543;-79
2022/04/16 15:09:35;;;;;;;4.37;2.03;;;11.20;33.00;;;;;;10251028;28;20255;-78
2022/04/16 15:14:56;;;;;;;4.37;2.27;;;11.10;33.10;;;;;;10209556;29;20545;-78
2022/04/16 15:20:21;;;;;;;1.80;1.07;;;10.90;33.50;;;;;;10238598;29;20212;-79
2022/04/16 15:25:46;;;;;;;6.37;2.40;;;10.80;33.00;;;;;;10268510;28;20202;-78
2022/04/16 15:31:17;;;;;;;5.80;3.67;;;10.80;35.50;;;;;;10234984;29;20227;-78
2022/04/16 15:36:39;;;;;;;7.33;4.10;;;10.80;37.60;;;;;;10277908;28;20232;-79
2022/04/16 15:42:03;;;;;;;6.13;3.50;;;10.80;38.60;;;;;;10330362;28;20201;-78
2022/04/16 15:47:24;;;;;;;12.83;4.40;;;10.80;38.80;;;;;;10315075;28;20229;-78
2022/04/16 15:52:45;;;;;;;12.90;4.00;;;10.60;39.00;;;;;;10314544;28;20194;-78
2022/04/16 15:58:07;;;;;;;4.13;2.30;;;10.60;42.00;;;;;;10316314;28;20563;-78
2022/04/16 16:03:28;;;;;;;9.27;3.33;;;10.50;39.50;;;;;;10314839;28;20200;-78
2022/04/16 16:08:52;;;;;;;7.83;4.30;;;10.50;40.00;;;;;;10299821;28;20230;-78
2022/04/16 16:14:14;;;;;;;7.13;3.40;;;10.40;40.40;;;;;;10364524;28;20200;-78
2022/04/16 16:19:35;;;;;;;19.13;6.17;;;10.30;43.70;;;;;;10335518;28;20389;-78
2022/04/16 16:24:57;;;;;;;10.00;6.27;;;10.20;45.20;;;;;;10322346;28;20235;-78
2022/04/16 16:30:19;;;;;;;5.37;3.23;;;10.10;47.60;;;;;;10322656;28;20223;-79
2022/04/16 16:35:41;;;;;;;10.27;4.13;;;9.80;48.40;;;;;;10293555;28;20255;-79
2022/04/16 16:41:02;;;;;;;11.90;4.27;;;9.70;50.70;;;;;;10321801;28;20200;-79
2022/04/16 16:46:27;;;;;;;8.27;5.00;;;9.60;53.10;;;;;;10334349;28;20195;-78
2022/04/16 16:51:49;;;;;;;9.63;5.67;;;9.50;56.20;;;;;;10336443;28;20255;-78
2022/04/16 16:57:10;;;;;;;8.60;4.77;;;9.40;57.30;;;;;;10320871;28;20196;-80
2022/04/16 17:08:19;;;;;;;9.43;4.60;;;9.10;67.80;;;;;;10316894;28;20270;-80
2022/04/16 17:13:41;;;;;;;13.27;6.07;;;8.90;68.80;;;;;;10316858;28;20292;-79
2022/04/16 17:19:03;;;;;;;14.47;7.23;;;8.70;67.60;;;;;;10305519;28;20300;-79
2022/04/16 17:24:25;;;;;;;13.63;8.03;;;8.60;72.20;;;;;;10316347;28;20287;-78
2022/04/16 17:29:46;;;;;;;16.10;9.80;;;8.50;72.50;;;;;;10316216;28;20463;-79
2022/04/16 17:35:07;;;;;;;14.00;7.50;;;8.30;78.10;;;;;;10289006;28;20239;-80
2022/04/16 17:40:30;;;;;;;13.90;6.57;;;8.20;82.00;;;;;;10316189;28;20206;-79
2022/04/16 17:45:55;;;;;;;16.00;6.30;;;8.10;85.20;;;;;;10316882;28;20203;-79
2022/04/16 17:51:16;;;;;;;10.73;5.40;;;8.00;86.50;;;;;;10334009;28;20418;-79
2022/04/16 17:56:38;;;;;;;9.87;3.97;;;8.00;86.90;;;;;;10318846;28;20195;-79
2022/04/16 18:02:02;;;;;;;10.73;5.03;;;7.90;87.60;;;;;;10333801;28;20603;-79
2022/04/16 18:07:23;;;;;;;8.80;4.40;;;7.80;88.20;;;;;;10318234;28;20256;-79
2022/04/16 18:12:45;;;;;;;5.40;2.77;;;7.60;90.30;;;;;;10357198;28;20205;-78
2022/04/16 18:18:06;;;;;;;7.00;3.87;;;7.50;91.00;;;;;;10357841;28;20198;-78
2022/04/16 18:23:28;;;;;;;8.90;3.87;;;7.50;92.10;;;;;;10316573;28;20209;-78
2022/04/16 18:28:49;;;;;;;9.17;5.20;;;7.40;93.70;;;;;;10316645;28;20216;-80
2022/04/16 18:34:12;;;;;;;9.93;5.93;;;7.30;94.60;;;;;;10302697;28;20207;-79
2022/04/16 18:39:34;;;;;;;12.67;7.30;;;7.20;95.60;;;;;;10316632;28;20198;-79
2022/04/16 18:44:55;;;;;;;14.10;8.00;;;7.10;96.90;;;;;;10331977;28;20198;-79
2022/04/16 18:50:16;;;;;;;15.40;7.57;;;7.10;98.70;;;;;;10302214;28;20259;-78
2022/04/16 18:55:38;;;;;;;11.33;6.13;;;7.00;99.90;;;;;;10290091;28;20486;-78
2022/04/16 19:06:51;;;;;;;13.37;5.97;;;6.80;99.90;;;;;;10316151;28;20513;-79
2022/04/16 19:12:14;;;;;;;15.03;8.17;;;6.70;99.90;;;;;;10334419;28;20212;-78
2022/04/16 19:17:36;;;;;;;21.67;10.23;;;6.60;99.90;;;;;;10344404;28;20273;-79
2022/04/16 19:23:14;;;;;;;21.73;9.97;;;6.60;99.90;;;;;;10352083;28;20289;-79
2022/04/16 19:28:36;;;;;;;30.50;14.27;;;6.60;99.90;;;;;;10330721;28;20236;-80
2022/04/16 19:33:57;;;;;;;34.43;14.80;;;6.50;99.90;;;;;;10314611;28;20231;-79
2022/04/16 19:39:19;;;;;;;29.13;14.67;;;;;;;;;;10330563;28;20205;-79
2022/04/16 19:44:40;;;;;;;20.53;10.23;;;6.30;99.90;;;;;;10313826;28;20206;-80
2022/04/16 19:50:06;;;;;;;14.67;7.50;;;;;;;;;;10330001;28;20245;-80
2022/04/16 19:55:28;;;;;;;13.53;7.73;;;6.00;99.90;;;;;;10314612;28;20192;-79
2022/04/16 20:00:49;;;;;;;14.83;7.53;;;5.90;99.90;;;;;;10330041;28;20204;-79
2022/04/16 20:06:12;;;;;;;16.10;8.13;;;5.80;99.90;;;;;;10314829;28;20205;-79
2022/04/16 20:11:33;;;;;;;20.20;9.20;;;5.70;99.90;;;;;;10341403;28;20236;-79
2022/04/16 20:16:55;;;;;;;21.90;8.70;;;5.60;99.90;;;;;;10350760;28;20589;-79
2022/04/16 20:22:16;;;;;;;22.13;8.77;;;5.60;99.90;;;;;;10336340;28;20501;-80
2022/04/16 20:27:38;;;;;;;29.13;9.63;;;5.50;99.90;;;;;;10313342;28;20212;-80
2022/04/16 20:33:01;;;;;;;34.30;12.33;;;5.40;99.90;;;;;;10325283;28;20214;-81
2022/04/16 20:38:23;;;;;;;31.93;11.13;;;5.30;99.90;;;;;;10305198;28;20252;-80
2022/04/16 20:49:24;;;;;;;19.00;7.80;;;5.20;99.90;;;;;;10317584;28;20522;-79
2022/04/16 20:54:46;;;;;;;20.00;7.90;;;5.10;99.90;;;;;;10304467;28;20279;-79
2022/04/16 21:00:08;;;;;;;22.77;8.53;;;5.00;99.90;;;;;;10332290;28;20201;-79
2022/04/16 21:05:31;;;;;;;15.53;5.73;;;4.90;99.90;;;;;;10337155;28;20566;-79
2022/04/16 21:10:52;;;;;;;10.03;4.80;;;4.90;99.90;;;;;;10344362;28;20226;-78
2022/04/16 21:16:14;;;;;;;11.13;5.03;;;4.80;99.90;;;;;;10360037;28;20357;-79
2022/04/16 21:21:36;;;;;;;13.80;6.57;;;4.80;99.90;;;;;;10333840;28;20203;-80
2022/04/16 21:26:57;;;;;;;16.93;7.70;;;4.80;99.90;;;;;;10306207;28;20194;-79
2022/04/16 21:32:21;;;;;;;14.50;7.90;;;4.70;99.90;;;;;;10335149;28;20527;-79
2022/04/16 21:37:42;;;;;;;13.53;7.20;;;4.60;99.90;;;;;;10319484;28;20230;-79
2022/04/16 21:43:04;;;;;;;16.97;8.43;;;4.70;99.90;;;;;;10334963;28;20273;-79
2022/04/16 21:48:26;;;;;;;21.83;10.67;;;4.60;99.90;;;;;;10319935;28;20289;-78
2022/04/16 21:53:47;;;;;;;23.03;11.60;;;4.50;99.90;;;;;;10318832;28;20420;-79
2022/04/16 21:59:09;;;;;;;25.57;10.00;;;4.50;99.90;;;;;;10318169;28;20525;-78
2022/04/16 22:04:30;;;;;;;13.33;7.57;;;4.40;99.90;;;;;;10303827;28;20194;-78
2022/04/16 22:09:52;;;;;;;13.33;6.83;;;4.40;99.90;;;;;;10333888;28;20241;-78
2022/04/16 22:15:13;;;;;;;12.43;6.83;;;4.30;99.90;;;;;;10357481;28;20191;-79
2022/04/16 22:20:35;;;;;;;14.07;6.77;;;4.30;99.90;;;;;;10333152;28;20367;-78
2022/04/16 22:25:56;;;;;;;15.50;6.57;;;4.20;99.90;;;;;;10309619;28;20195;-78
2022/04/16 22:31:17;;;;;;;16.00;7.07;;;4.10;99.90;;;;;;10317792;28;20295;-79
2022/04/16 22:42:18;;;;;;;28.13;10.03;;;4.00;99.90;;;;;;10332382;28;20202;-80
2022/04/16 22:47:40;;;;;;;22.43;11.53;;;4.10;99.90;;;;;;10315764;28;20210;-78
2022/04/16 22:53:02;;;;;;;32.00;14.13;;;4.00;99.90;;;;;;10316197;28;20202;-79
2022/04/16 22:58:24;;;;;;;28.47;11.67;;;3.90;99.90;;;;;;10302393;28;20245;-79
2022/04/16 23:03:45;;;;;;;32.00;11.37;;;4.00;99.90;;;;;;10315430;28;20245;-79
2022/04/16 23:09:07;;;;;;;24.67;9.97;;;3.90;99.90;;;;;;10331353;28;20261;-79
2022/04/16 23:20:11;;;;;;;31.33;10.63;;;3.80;99.90;;;;;;10321302;28;20202;-78
2022/04/16 23:25:34;;;;;;;21.47;9.60;;;3.80;99.90;;;;;;10313917;28;20209;-79
2022/04/16 23:30:57;;;;;;;22.20;9.90;;;3.90;99.90;;;;;;10314660;28;20308;-80
2022/04/16 23:36:18;;;;;;;20.43;8.87;;;3.80;99.90;;;;;;10315436;28;20229;-79
2022/04/16 23:41:41;;;;;;;15.17;7.30;;;3.80;99.90;;;;;;10314379;28;20276;-80
2022/04/16 23:47:03;;;;;;;14.67;7.40;;;3.80;99.90;;;;;;10315234;28;20262;-79
2022/04/16 23:52:25;;;;;;;13.60;6.57;;;3.70;99.90;;;;;;10327359;28;20227;-79
2022/04/16 23:57:47;;;;;;;16.50;7.47;;;3.70;99.90;;;;;;10315227;28;20198;-80
